createdAt,value
2017-08-10T00:01:33.281Z,1.83
2017-08-10T00:04:00.844Z,2.10
2017-08-10T00:06:28.370Z,1.60
2017-08-10T00:08:55.932Z,2.03
2017-08-10T00:11:23.453Z,1.93
2017-08-10T00:13:51.014Z,2.20
2017-08-10T00:16:18.564Z,1.40
2017-08-10T00:18:46.118Z,2.07
2017-08-10T00:21:13.641Z,1.83
2017-08-10T00:23:41.193Z,2.40
2017-08-10T00:26:08.732Z,1.70
2017-08-10T00:28:36.256Z,2.03
2017-08-10T00:31:03.811Z,2.23
2017-08-10T00:33:31.337Z,2.20
2017-08-10T00:35:58.897Z,1.70
2017-08-10T00:38:26.421Z,1.97
2017-08-10T00:40:53.976Z,1.63
2017-08-10T00:43:21.490Z,1.53
2017-08-10T00:45:49.046Z,1.80
2017-08-10T00:48:16.601Z,2.13
2017-08-10T00:50:44.165Z,1.63
2017-08-10T00:53:11.684Z,1.80
2017-08-10T00:55:39.314Z,1.87
2017-08-10T00:58:06.833Z,2.00
2017-08-10T01:00:34.379Z,1.70
2017-08-10T01:03:01.927Z,2.17
2017-08-10T01:05:29.481Z,1.93
2017-08-10T01:07:57.017Z,1.30
2017-08-10T01:10:24.563Z,2.17
2017-08-10T01:12:52.082Z,1.60
2017-08-10T01:15:19.630Z,1.53
2017-08-10T01:17:47.155Z,1.73
2017-08-10T01:20:14.683Z,1.80
2017-08-10T01:22:42.236Z,1.80
2017-08-10T01:25:09.788Z,1.90
2017-08-10T01:27:37.338Z,1.60
2017-08-10T01:30:04.858Z,1.83
2017-08-10T01:32:32.405Z,1.80
2017-08-10T01:34:59.932Z,1.70
2017-08-10T01:37:27.487Z,1.80
2017-08-10T01:39:55.010Z,1.70
2017-08-10T01:42:22.558Z,1.80
2017-08-10T01:44:50.081Z,1.80
2017-08-10T01:47:17.640Z,1.53
2017-08-10T01:49:45.163Z,2.03
2017-08-10T01:52:12.714Z,1.80
2017-08-10T01:54:40.266Z,2.50
2017-08-10T01:57:07.821Z,1.87
2017-08-10T01:59:35.341Z,2.10
2017-08-10T02:02:02.862Z,2.50
2017-08-10T02:04:30.418Z,1.60
2017-08-10T02:06:57.940Z,2.00
2017-08-10T02:09:25.502Z,1.83
2017-08-10T02:11:53.028Z,1.60
2017-08-10T02:14:20.599Z,2.20
2017-08-10T02:16:48.123Z,1.50
2017-08-10T02:19:15.673Z,1.80
2017-08-10T02:21:43.201Z,1.30
2017-08-10T02:24:10.752Z,1.90
2017-08-10T02:26:38.271Z,1.80
2017-08-10T02:29:05.826Z,1.53
2017-08-10T02:31:33.422Z,1.70
2017-08-10T02:34:00.973Z,1.60
2017-08-10T02:36:28.499Z,1.73
2017-08-10T02:38:56.141Z,1.70
2017-08-10T02:41:23.671Z,2.10
2017-08-10T02:43:51.222Z,1.70
2017-08-10T02:46:18.819Z,1.30
2017-08-10T02:48:46.395Z,1.90
2017-08-10T02:51:13.908Z,2.40
2017-08-10T02:53:41.498Z,1.70
2017-08-10T02:56:09.080Z,1.93
2017-08-10T02:58:36.606Z,1.47
2017-08-10T03:01:04.174Z,2.00
2017-08-10T03:03:31.710Z,2.53
2017-08-10T03:05:59.265Z,1.60
2017-08-10T03:08:26.790Z,1.33
2017-08-10T03:10:54.349Z,1.57
2017-08-10T03:13:21.877Z,1.83
2017-08-10T03:15:49.428Z,1.80
2017-08-10T03:18:16.941Z,1.80
2017-08-10T03:20:44.517Z,1.40
2017-08-10T03:23:12.063Z,2.00
2017-08-10T03:25:39.634Z,1.63
2017-08-10T03:28:07.166Z,1.60
2017-08-10T03:30:34.733Z,2.00
2017-08-10T03:33:02.292Z,1.80
2017-08-10T03:35:29.861Z,2.20
2017-08-10T03:37:57.394Z,1.93
2017-08-10T03:40:24.962Z,2.10
2017-08-10T03:42:52.481Z,2.47
2017-08-10T03:45:20.114Z,2.57
2017-08-10T03:47:47.695Z,2.13
2017-08-10T03:50:15.217Z,1.80
2017-08-10T03:52:42.776Z,1.87
2017-08-10T03:55:10.310Z,1.50
2017-08-10T03:57:37.873Z,2.27
2017-08-10T04:00:05.392Z,2.30
2017-08-10T04:02:32.955Z,1.97
2017-08-10T04:05:00.530Z,2.90
2017-08-10T04:07:28.087Z,2.37
2017-08-10T04:09:55.612Z,2.60
2017-08-10T04:12:23.176Z,3.33
2017-08-10T04:14:50.693Z,3.50
2017-08-10T04:17:18.264Z,2.77
2017-08-10T04:19:45.786Z,2.40
2017-08-10T04:22:13.369Z,2.60
2017-08-10T04:24:40.916Z,3.20
2017-08-10T04:27:08.471Z,3.03
2017-08-10T04:29:36.002Z,2.53
2017-08-10T04:32:03.531Z,2.00
2017-08-10T04:34:31.123Z,3.50
2017-08-10T04:36:58.646Z,3.27
2017-08-10T04:39:26.160Z,3.23
2017-08-10T04:41:53.732Z,3.80
2017-08-10T04:44:21.302Z,3.30
2017-08-10T04:46:48.903Z,3.10
2017-08-10T04:49:16.427Z,3.80
2017-08-10T04:51:43.974Z,3.60
2017-08-10T04:54:11.529Z,3.37
2017-08-10T04:56:39.120Z,4.10
2017-08-10T04:59:06.641Z,3.87
2017-08-10T05:01:34.195Z,3.90
2017-08-10T05:04:01.735Z,3.83
2017-08-10T05:06:29.298Z,4.70
2017-08-10T05:08:56.833Z,4.33
2017-08-10T05:11:24.367Z,3.60
2017-08-10T05:13:51.958Z,3.53
2017-08-10T05:16:19.533Z,4.30
2017-08-10T05:18:47.086Z,3.67
2017-08-10T05:21:14.609Z,3.40
2017-08-10T05:23:42.165Z,4.07
2017-08-10T05:26:09.695Z,3.70
2017-08-10T05:28:37.249Z,4.73
2017-08-10T05:31:04.825Z,4.00
2017-08-10T05:33:32.392Z,4.53
2017-08-10T05:35:59.974Z,4.57
2017-08-10T05:38:27.539Z,4.03
2017-08-10T05:40:55.062Z,4.00
2017-08-10T05:43:22.609Z,3.80
2017-08-10T05:45:50.159Z,3.83
2017-08-10T05:48:17.722Z,3.73
2017-08-10T05:50:45.240Z,4.30
2017-08-10T05:53:12.796Z,3.33
2017-08-10T05:55:40.323Z,3.80
2017-08-10T05:58:07.893Z,3.97
2017-08-10T06:00:35.462Z,4.10
2017-08-10T06:03:02.997Z,4.03
2017-08-10T06:05:30.557Z,4.10
2017-08-10T06:07:58.076Z,3.30
2017-08-10T06:10:25.641Z,3.70
2017-08-10T06:12:53.156Z,3.40
2017-08-10T06:15:20.715Z,3.17
2017-08-10T06:17:48.461Z,3.80
2017-08-10T06:20:16.229Z,3.03
2017-08-10T06:22:44.622Z,2.83
2017-08-10T06:25:13.282Z,2.43
2017-08-10T06:27:41.476Z,3.20
2017-08-10T06:30:10.146Z,2.77
2017-08-10T06:32:39.092Z,2.93
2017-08-10T06:35:06.729Z,2.97
2017-08-10T06:37:34.947Z,2.50
2017-08-10T06:40:03.827Z,2.77
2017-08-10T06:42:31.595Z,3.00
2017-08-10T06:44:59.638Z,2.27
2017-08-10T06:47:27.602Z,2.60
2017-08-10T06:49:55.222Z,2.80
2017-08-10T06:52:22.761Z,2.80
2017-08-10T06:54:50.285Z,2.67
2017-08-10T06:57:17.867Z,2.57
2017-08-10T06:59:45.384Z,2.47
2017-08-10T07:02:12.929Z,2.90
2017-08-10T07:04:40.492Z,3.67
2017-08-10T07:07:08.035Z,3.33
2017-08-10T07:09:35.549Z,3.33
2017-08-10T07:12:03.106Z,3.50
2017-08-10T07:14:30.625Z,2.93
2017-08-10T07:16:58.182Z,2.73
2017-08-10T07:19:25.768Z,2.73
2017-08-10T07:21:53.317Z,2.50
2017-08-10T07:24:20.829Z,3.13
2017-08-10T07:26:48.380Z,3.10
2017-08-10T07:29:15.952Z,2.60
2017-08-10T07:31:43.470Z,1.83
2017-08-10T07:34:11.020Z,2.57
2017-08-10T07:36:38.563Z,1.97
2017-08-10T07:39:06.125Z,2.63
2017-08-10T07:41:33.640Z,2.10
2017-08-10T07:44:01.223Z,2.83
2017-08-10T07:46:28.745Z,2.80
2017-08-10T07:48:56.296Z,2.20
2017-08-10T07:51:23.821Z,2.67
2017-08-10T07:53:51.371Z,2.23
2017-08-10T07:56:18.895Z,2.33
2017-08-10T07:58:46.450Z,2.67
2017-08-10T08:01:13.967Z,2.60
2017-08-10T08:03:41.521Z,2.53
2017-08-10T08:06:09.041Z,1.87
2017-08-10T08:08:36.595Z,2.93
2017-08-10T08:11:04.104Z,2.23
2017-08-10T08:13:31.662Z,2.37
2017-08-10T08:15:59.188Z,2.33
2017-08-10T08:18:26.733Z,2.63
2017-08-10T08:20:54.366Z,2.67
2017-08-10T08:23:21.885Z,2.33
2017-08-10T08:25:49.430Z,2.30
2017-08-10T08:28:16.954Z,2.30
2017-08-10T08:30:44.525Z,2.10
2017-08-10T08:33:12.041Z,2.53
2017-08-10T08:35:39.594Z,2.10
2017-08-10T08:38:07.129Z,2.53
2017-08-10T08:40:34.693Z,1.97
2017-08-10T08:43:02.216Z,1.77
2017-08-10T08:45:29.782Z,2.30
2017-08-10T08:47:57.622Z,1.77
2017-08-10T08:50:25.289Z,1.83
2017-08-10T08:52:53.039Z,1.70
2017-08-10T08:55:21.357Z,1.57
2017-08-10T08:57:49.094Z,1.80
2017-08-10T09:00:16.875Z,1.30
2017-08-10T09:02:44.725Z,2.23
2017-08-10T09:05:13.104Z,2.07
2017-08-10T09:07:41.130Z,1.67
2017-08-10T09:10:08.663Z,1.70
2017-08-10T09:12:36.213Z,1.87
2017-08-10T09:15:03.742Z,1.80
2017-08-10T09:17:31.315Z,1.70
2017-08-10T09:19:58.830Z,1.60
2017-08-10T09:22:26.386Z,2.13
2017-08-10T09:24:53.915Z,1.67
2017-08-10T09:27:21.552Z,1.77
2017-08-10T09:29:49.068Z,1.10
2017-08-10T09:32:16.626Z,1.70
2017-08-10T09:34:44.173Z,1.43
2017-08-10T09:37:11.716Z,1.50
2017-08-10T09:39:39.234Z,1.73
2017-08-10T09:42:06.756Z,1.20
2017-08-10T09:44:34.313Z,1.77
2017-08-10T09:47:01.839Z,1.27
2017-08-10T09:49:29.395Z,1.40
2017-08-10T09:51:56.944Z,1.47
2017-08-10T09:54:24.498Z,1.30
2017-08-10T09:56:52.013Z,1.07
2017-08-10T09:59:19.638Z,1.13
2017-08-10T10:01:47.169Z,1.10
2017-08-10T10:04:14.722Z,1.10
2017-08-10T10:06:42.240Z,1.33
2017-08-10T10:09:09.784Z,0.90
2017-08-10T10:11:37.298Z,1.17
2017-08-10T10:14:04.879Z,1.27
2017-08-10T10:16:32.540Z,1.00
2017-08-10T10:19:00.110Z,1.00
2017-08-10T10:21:27.634Z,1.20
2017-08-10T10:23:55.184Z,1.17
2017-08-10T10:26:22.743Z,1.40
2017-08-10T10:28:50.264Z,1.20
2017-08-10T10:31:17.820Z,1.30
2017-08-10T10:33:45.333Z,1.10
2017-08-10T10:36:12.914Z,1.10
2017-08-10T10:38:40.430Z,1.40
2017-08-10T10:41:07.991Z,1.80
2017-08-10T10:43:35.513Z,1.43
2017-08-10T10:46:03.061Z,1.43
2017-08-10T10:48:30.574Z,0.80
2017-08-10T10:50:58.126Z,0.90
2017-08-10T10:53:25.693Z,1.10
2017-08-10T10:55:53.261Z,0.80
2017-08-10T10:58:20.776Z,0.80
2017-08-10T11:00:48.340Z,1.23
2017-08-10T11:03:15.866Z,0.83
2017-08-10T11:05:43.456Z,0.80
2017-08-10T11:08:10.977Z,0.77
2017-08-10T11:10:38.507Z,0.63
2017-08-10T11:13:06.054Z,0.67
2017-08-10T11:15:33.581Z,0.73
2017-08-10T11:18:01.129Z,1.00
2017-08-10T11:20:28.640Z,0.80
2017-08-10T11:22:56.189Z,0.70
2017-08-10T11:25:23.719Z,0.77
2017-08-10T11:27:51.278Z,0.80
2017-08-10T11:30:18.831Z,0.70
2017-08-10T11:32:46.381Z,0.70
2017-08-10T11:35:13.909Z,0.80
2017-08-10T11:37:41.463Z,0.80
2017-08-10T11:40:08.980Z,1.10
2017-08-10T11:42:36.524Z,0.80
2017-08-10T11:45:04.142Z,0.60
2017-08-10T11:47:31.707Z,0.90
2017-08-10T11:49:59.240Z,0.70
2017-08-10T11:52:26.828Z,0.70
2017-08-10T11:54:54.345Z,1.00
2017-08-10T11:57:21.870Z,0.73
2017-08-10T11:59:49.426Z,0.70
2017-08-10T12:02:16.944Z,0.80
2017-08-10T12:04:44.486Z,0.90
2017-08-10T12:07:12.009Z,0.73
2017-08-10T12:09:39.561Z,0.70
2017-08-10T12:12:07.078Z,0.80
2017-08-10T12:14:34.627Z,0.80
2017-08-10T12:17:02.158Z,0.70
2017-08-10T12:19:29.713Z,0.70
2017-08-10T12:21:57.238Z,0.80
2017-08-10T12:24:24.798Z,0.67
2017-08-10T12:26:52.324Z,0.70
2017-08-10T12:29:19.877Z,0.90
2017-08-10T12:31:47.402Z,0.90
2017-08-10T12:34:14.928Z,0.93
2017-08-10T12:36:42.477Z,1.00
2017-08-10T12:39:10.012Z,1.00
2017-08-10T12:41:37.581Z,0.97
2017-08-10T12:44:05.097Z,0.80
2017-08-10T12:46:32.649Z,1.00
2017-08-10T12:49:00.165Z,1.20
2017-08-10T12:51:27.715Z,1.20
2017-08-10T12:53:55.282Z,1.10
2017-08-10T12:56:22.864Z,0.80
2017-08-10T12:58:50.420Z,1.07
2017-08-10T13:01:17.969Z,1.13
2017-08-10T13:03:45.527Z,1.00
2017-08-10T13:06:13.076Z,0.80
2017-08-10T13:08:40.599Z,0.90
2017-08-10T13:11:08.155Z,0.87
2017-08-10T13:13:35.674Z,1.03
2017-08-10T13:16:03.226Z,0.90
2017-08-10T13:18:30.851Z,1.10
2017-08-10T13:20:58.406Z,1.10
2017-08-10T13:23:25.937Z,1.00
2017-08-10T13:25:53.488Z,1.00
2017-08-10T13:28:21.033Z,1.17
2017-08-10T13:30:48.550Z,1.17
2017-08-10T13:33:16.106Z,1.00
2017-08-10T13:35:43.620Z,1.00
2017-08-10T13:38:11.173Z,1.60
2017-08-10T13:40:38.701Z,1.13
2017-08-10T13:43:06.344Z,1.10
2017-08-10T13:45:33.856Z,1.30
2017-08-10T13:48:01.415Z,0.93
2017-08-10T13:50:28.953Z,0.93
2017-08-10T13:52:56.503Z,1.27
2017-08-10T13:55:24.037Z,1.10
2017-08-10T13:57:51.585Z,1.27
2017-08-10T14:00:19.097Z,1.33
2017-08-10T14:02:46.651Z,1.00
2017-08-10T14:05:14.172Z,1.10
2017-08-10T14:07:41.721Z,1.20
2017-08-10T14:10:09.243Z,1.27
2017-08-10T14:12:36.811Z,1.27
2017-08-10T14:15:04.330Z,1.20
2017-08-10T14:17:31.848Z,1.20
2017-08-10T14:19:59.409Z,1.03
2017-08-10T14:22:26.929Z,1.30
2017-08-10T14:24:54.477Z,1.40
2017-08-10T14:27:22.316Z,1.17
2017-08-10T14:29:49.866Z,1.10
2017-08-10T14:32:17.408Z,1.10
2017-08-10T14:34:44.959Z,1.10
2017-08-10T14:37:12.498Z,1.00
2017-08-10T14:39:40.065Z,0.80
2017-08-10T14:42:07.585Z,1.17
2017-08-10T14:44:35.142Z,0.93
2017-08-10T14:47:02.665Z,1.17
2017-08-10T14:49:30.216Z,1.10
2017-08-10T14:51:57.739Z,0.90
2017-08-10T14:54:25.286Z,1.20
2017-08-10T14:56:52.801Z,1.00
2017-08-10T14:59:20.350Z,1.20
2017-08-10T15:01:47.864Z,1.10
2017-08-10T15:04:15.435Z,0.90
2017-08-10T15:06:42.950Z,1.07
2017-08-10T15:09:10.460Z,1.03
2017-08-10T15:11:38.007Z,1.00
2017-08-10T15:14:05.532Z,1.00
2017-08-10T15:16:33.088Z,0.93
2017-08-10T15:19:00.620Z,1.20
2017-08-10T15:21:28.166Z,1.20
2017-08-10T15:23:56.315Z,1.17
2017-08-10T15:26:23.861Z,0.90
2017-08-10T15:28:51.381Z,1.10
2017-08-10T15:31:18.926Z,1.10
2017-08-10T15:33:46.701Z,1.37
2017-08-10T15:36:14.256Z,0.80
2017-08-10T15:38:41.776Z,1.07
2017-08-10T15:41:09.320Z,0.87
2017-08-10T15:43:36.841Z,0.87
2017-08-10T15:46:04.358Z,1.20
2017-08-10T15:48:31.909Z,0.70
2017-08-10T15:50:59.429Z,1.40
2017-08-10T15:53:26.988Z,1.07
2017-08-10T15:55:54.557Z,1.00
2017-08-10T15:58:22.114Z,1.00
2017-08-10T16:00:49.624Z,1.40
2017-08-10T16:03:17.728Z,1.03
2017-08-10T16:05:46.034Z,1.63
2017-08-10T16:08:14.719Z,1.10
2017-08-10T16:10:43.305Z,0.97
2017-08-10T16:13:11.456Z,1.33
2017-08-10T16:15:39.153Z,0.90
2017-08-10T16:18:06.713Z,1.00
2017-08-10T16:20:34.237Z,0.83
2017-08-10T16:23:01.804Z,1.00
2017-08-10T16:25:29.335Z,0.80
2017-08-10T16:27:56.885Z,0.80
2017-08-10T16:30:24.396Z,0.97
2017-08-10T16:32:51.915Z,0.93
2017-08-10T16:35:19.466Z,1.10
2017-08-10T16:37:46.989Z,1.07
2017-08-10T16:40:14.547Z,1.20
2017-08-10T16:42:42.066Z,1.00
2017-08-10T16:45:09.624Z,1.10
2017-08-10T16:47:37.140Z,0.80
2017-08-10T16:50:04.694Z,0.87
2017-08-10T16:52:32.215Z,1.00
2017-08-10T16:54:59.764Z,0.83
2017-08-10T16:57:27.288Z,0.90
2017-08-10T16:59:54.838Z,1.13
2017-08-10T17:02:22.582Z,1.50
2017-08-10T17:04:50.257Z,1.37
2017-08-10T17:07:18.043Z,2.73
2017-08-10T17:09:45.628Z,2.87
2017-08-10T17:12:13.355Z,1.30
2017-08-10T17:14:41.690Z,1.60
2017-08-10T17:17:09.426Z,1.63
2017-08-10T17:19:37.674Z,1.40
2017-08-10T17:22:05.793Z,1.67
2017-08-10T17:24:33.606Z,1.50
2017-08-10T17:27:01.832Z,1.23
2017-08-10T17:29:30.239Z,2.47
2017-08-10T17:31:58.206Z,2.20
2017-08-10T17:34:26.073Z,1.80
2017-08-10T17:36:54.080Z,2.60
2017-08-10T17:39:21.955Z,2.57
2017-08-10T17:41:49.646Z,2.50
2017-08-10T17:44:17.167Z,3.00
2017-08-10T17:46:44.717Z,2.30
2017-08-10T17:49:12.245Z,2.97
2017-08-10T17:51:39.796Z,2.23
2017-08-10T17:54:07.318Z,1.80
2017-08-10T17:56:34.864Z,2.00
2017-08-10T17:59:02.388Z,2.43
2017-08-10T18:01:29.957Z,2.83
2017-08-10T18:03:57.489Z,1.90
2017-08-10T18:06:25.180Z,2.70
2017-08-10T18:08:52.874Z,1.90
2017-08-10T18:11:20.571Z,1.90
2017-08-10T18:13:49.209Z,2.53
2017-08-10T18:16:16.796Z,1.93
2017-08-10T18:18:44.347Z,2.87
2017-08-10T18:21:11.869Z,2.23
2017-08-10T18:23:39.418Z,1.57
2017-08-10T18:26:06.949Z,1.50
2017-08-10T18:28:34.509Z,3.00
2017-08-10T18:31:02.038Z,1.77
2017-08-10T18:33:29.603Z,2.13
2017-08-10T18:35:57.121Z,1.43
2017-08-10T18:38:24.677Z,2.20
2017-08-10T18:40:52.203Z,1.47
2017-08-10T18:43:19.748Z,1.77
2017-08-10T18:45:47.271Z,2.13
2017-08-10T18:48:14.822Z,1.80
2017-08-10T18:50:42.343Z,1.60
2017-08-10T18:53:09.901Z,1.53
2017-08-10T18:55:37.417Z,2.03
2017-08-10T18:58:04.966Z,2.40
2017-08-10T19:00:32.512Z,1.60
2017-08-10T19:03:00.037Z,2.60
2017-08-10T19:05:27.587Z,1.93
2017-08-10T19:07:55.105Z,1.53
2017-08-10T19:10:22.653Z,1.67
2017-08-10T19:12:50.183Z,1.57
2017-08-10T19:15:17.720Z,2.10
2017-08-10T19:17:45.379Z,1.83
2017-08-10T19:20:13.246Z,3.30
2017-08-10T19:22:40.927Z,1.90
2017-08-10T19:25:08.476Z,2.20
2017-08-10T19:27:36.027Z,1.77
2017-08-10T19:30:03.586Z,1.50
2017-08-10T19:32:31.104Z,2.07
2017-08-10T19:34:58.673Z,1.93
2017-08-10T19:37:26.189Z,2.10
2017-08-10T19:39:53.702Z,1.57
2017-08-10T19:42:21.256Z,1.80
2017-08-10T19:44:48.767Z,1.20
2017-08-10T19:47:16.318Z,2.03
2017-08-10T19:49:43.837Z,1.83
2017-08-10T19:52:11.398Z,2.17
2017-08-10T19:54:38.918Z,1.90
2017-08-10T19:57:06.477Z,1.70
2017-08-10T19:59:34.158Z,1.53
2017-08-10T20:02:01.713Z,1.63
2017-08-10T20:04:29.234Z,2.00
2017-08-10T20:06:56.751Z,1.83
2017-08-10T20:09:24.298Z,1.37
2017-08-10T20:11:51.858Z,1.63
2017-08-10T20:14:19.416Z,2.63
2017-08-10T20:16:46.940Z,1.60
2017-08-10T20:19:14.497Z,2.93
2017-08-10T20:21:42.010Z,1.67
2017-08-10T20:24:09.558Z,1.77
2017-08-10T20:26:37.074Z,2.30
2017-08-10T20:29:04.644Z,1.40
2017-08-10T20:31:32.159Z,1.90
2017-08-10T20:33:59.685Z,1.80
2017-08-10T20:36:27.253Z,1.73
2017-08-10T20:38:54.773Z,1.87
2017-08-10T20:41:22.333Z,1.80
2017-08-10T20:43:49.858Z,1.60
2017-08-10T20:46:17.433Z,1.60
2017-08-10T20:48:44.962Z,2.20
2017-08-10T20:51:12.519Z,1.77
2017-08-10T20:53:40.068Z,1.90
2017-08-10T20:56:07.597Z,1.33
2017-08-10T20:58:35.152Z,1.77
2017-08-10T21:01:02.674Z,2.07
2017-08-10T21:03:30.226Z,1.27
2017-08-10T21:05:57.757Z,2.27
2017-08-10T21:10:10.143Z,1.87
2017-08-10T21:12:37.691Z,2.10
2017-08-10T21:15:05.209Z,1.83
2017-08-10T21:17:32.754Z,3.57
2017-08-10T21:20:00.275Z,2.30
2017-08-10T21:22:27.829Z,2.40
2017-08-10T21:24:55.346Z,2.03
2017-08-10T21:27:22.863Z,2.77
2017-08-10T21:29:50.400Z,1.53
2017-08-10T21:32:17.917Z,1.57
2017-08-10T21:34:45.488Z,2.20
2017-08-10T21:37:13.038Z,2.20
2017-08-10T21:39:40.610Z,1.87
2017-08-10T21:42:08.126Z,1.90
2017-08-10T21:44:37.821Z,1.63
2017-08-10T21:47:05.343Z,2.00
2017-08-10T21:49:33.076Z,1.57
2017-08-10T21:52:00.601Z,1.43
2017-08-10T21:54:28.153Z,2.47
2017-08-10T21:56:55.670Z,2.07
2017-08-10T21:59:23.220Z,2.43
2017-08-10T22:01:50.745Z,2.60
2017-08-10T22:04:18.332Z,2.10
2017-08-10T22:06:45.879Z,1.53
2017-08-10T22:09:13.441Z,1.87
2017-08-10T22:11:40.965Z,1.73
2017-08-10T22:14:08.502Z,1.23
2017-08-10T22:16:36.092Z,1.30
2017-08-10T22:19:03.616Z,1.70
2017-08-10T22:21:31.174Z,1.67
2017-08-10T22:23:58.726Z,1.30
2017-08-10T22:26:26.283Z,1.30
2017-08-10T22:28:53.802Z,1.27
2017-08-10T22:31:21.353Z,1.30
2017-08-10T22:33:48.883Z,1.80
2017-08-10T22:36:16.485Z,1.40
2017-08-10T22:38:43.998Z,1.67
2017-08-10T22:41:11.976Z,1.13
2017-08-10T22:43:39.522Z,1.37
2017-08-10T22:46:07.137Z,1.10
2017-08-10T22:48:34.661Z,1.87
2017-08-10T22:51:02.182Z,1.07
2017-08-10T22:53:29.734Z,1.30
2017-08-10T22:55:57.249Z,1.60
2017-08-10T22:58:24.802Z,1.90
2017-08-10T23:00:52.321Z,1.37
2017-08-10T23:03:19.873Z,1.60
2017-08-10T23:05:48.315Z,1.30
2017-08-10T23:08:15.867Z,1.50
2017-08-10T23:10:43.383Z,1.37
2017-08-10T23:13:10.934Z,1.67
2017-08-10T23:15:38.473Z,1.20
2017-08-10T23:18:06.031Z,1.40
2017-08-10T23:20:33.546Z,1.40
2017-08-10T23:23:01.098Z,1.57
2017-08-10T23:25:28.661Z,1.40
2017-08-10T23:27:56.214Z,1.10
2017-08-10T23:30:23.745Z,1.30
2017-08-10T23:32:51.321Z,2.10
2017-08-10T23:35:18.839Z,0.90
2017-08-10T23:37:46.362Z,1.30
2017-08-10T23:40:13.966Z,1.33
2017-08-10T23:42:41.482Z,1.30
2017-08-10T23:45:09.040Z,1.70
2017-08-10T23:47:36.606Z,1.27
2017-08-10T23:50:04.165Z,1.70
2017-08-10T23:52:31.687Z,1.70
2017-08-10T23:54:59.262Z,2.27
2017-08-10T23:57:26.787Z,1.77
2017-08-10T23:59:54.343Z,1.83
